Terminal Aerodrome Forecast
Issued by NWS Duluth, MN

Home | Current Version | Previous Version | Text Only | Print | Product List | Glossary On
Versions: 1 2 3 4 5 6 7 8 9 10 11 12 13 14 15 16 17
000
FTUS43 KDLH 241200 AAA
TAFDLH
TAF AMD
KDLH 241200Z 2412/2512 31015G25KT 5SM -SN SCT020 OVC050
      TEMPO 2412/2415 1 1/2SM -SN BKN020
     FM241500 32017G28KT P6SM VCSH BKN040
     FM250000 32012KT P6SM SCT040
     FM250600 32007KT P6SM BKN120=

USA.gov is the U.S. government's official web portal to all federal, state and local government web resources and services.